Time;durP1;ratioP1;P1;durP2;ratioP2;P2;SDS_P1;SDS_P2;PMS_P1;PMS_P2;Temp;Humidity;BMP_temperature;BMP_pressure;BME280_temperature;BME280_humidity;BME280_pressure;Samples;Min_cycle;Max_cycle;Signal;HPM_P1;HPM_P2
2022/08/15 00:00:26;;;;;;;3.05;2.75;;;26.00;45.10;;;;;;4972591;28;20487;-54
2022/08/15 00:02:57;;;;;;;3.38;2.95;;;26.00;43.80;;;;;;4990551;28;20046;-53
2022/08/15 00:05:30;;;;;;;4.38;3.20;;;26.00;43.00;;;;;;5001763;28;20042;-51
2022/08/15 00:08:04;;;;;;;3.40;3.00;;;26.00;42.60;;;;;;5008716;28;20042;-53
2022/08/15 00:10:53;;;;;;;4.25;2.90;;;26.00;42.30;;;;;;5007335;28;20120;-50
2022/08/15 00:13:30;;;;;;;3.88;2.80;;;26.10;42.10;;;;;;4994901;28;20054;-51
2022/08/15 00:16:09;;;;;;;3.80;2.50;;;26.10;41.80;;;;;;5001763;28;20496;-53
2022/08/15 00:18:47;;;;;;;3.28;2.90;;;26.20;41.50;;;;;;5000436;28;20710;-53
2022/08/15 00:21:17;;;;;;;2.80;2.58;;;26.30;41.30;;;;;;4998670;28;21381;-53
2022/08/15 00:23:49;;;;;;;4.80;3.10;;;26.40;41.20;;;;;;4999790;28;20107;-50
2022/08/15 00:26:19;;;;;;;2.95;2.33;;;26.40;40.90;;;;;;4971811;28;20439;-53
2022/08/15 00:29:00;;;;;;;3.97;2.35;;;26.40;40.70;;;;;;4972991;28;20101;-50
2022/08/15 00:31:35;;;;;;;3.33;2.45;;;26.50;40.60;;;;;;5001845;28;20097;-50
2022/08/15 00:34:10;;;;;;;3.40;3.10;;;26.60;40.50;;;;;;4996058;28;20129;-54
2022/08/15 00:37:00;;;;;;;3.45;2.00;;;26.60;40.30;;;;;;5001171;28;20042;-50
2022/08/15 00:39:31;;;;;;;2.65;2.22;;;26.60;40.20;;;;;;5009806;28;20056;-53
2022/08/15 00:42:03;;;;;;;2.83;2.38;;;26.70;40.20;;;;;;4976405;28;20051;-53
2022/08/15 00:44:45;;;;;;;2.97;2.75;;;26.70;40.00;;;;;;4999337;28;20141;-52
2022/08/15 00:47:27;;;;;;;7.05;2.63;;;26.70;39.80;;;;;;4969947;28;20074;-51
2022/08/15 00:50:11;;;;;;;2.88;2.45;;;26.70;40.00;;;;;;4989088;28;20666;-53
2022/08/15 00:53:00;;;;;;;3.85;2.47;;;26.70;39.80;;;;;;5002137;28;20114;-51
2022/08/15 00:55:29;;;;;;;2.47;2.28;;;26.70;39.80;;;;;;5007506;28;20503;-54
2022/08/15 00:57:59;;;;;;;3.28;2.38;;;26.70;39.80;;;;;;5012875;28;20461;-52
2022/08/15 01:00:40;;;;;;;3.45;2.67;;;26.70;39.90;;;;;;5007679;28;20054;-51
2022/08/15 01:03:18;;;;;;;4.28;2.55;;;26.70;39.80;;;;;;5019862;28;20049;-50
2022/08/15 01:05:48;;;;;;;2.95;2.30;;;26.70;40.00;;;;;;5008454;28;20506;-53
2022/08/15 01:08:20;;;;;;;2.53;2.28;;;26.70;40.00;;;;;;5004541;28;20054;-53
2022/08/15 01:11:10;;;;;;;3.05;2.22;;;26.80;40.20;;;;;;4994971;28;20046;-52
2022/08/15 01:13:38;;;;;;;3.28;2.47;;;26.70;40.20;;;;;;5006322;28;20064;-54
2022/08/15 01:16:29;;;;;;;2.50;2.30;;;26.60;40.40;;;;;;5012575;28;20124;-52
2022/08/15 01:19:16;;;;;;;2.67;2.10;;;26.70;40.60;;;;;;5006242;28;20046;-54
2022/08/15 01:21:50;;;;;;;4.18;3.13;;;26.60;40.50;;;;;;5002156;28;20048;-53
2022/08/15 01:24:57;;;;;;;4.57;2.40;;;26.60;40.70;;;;;;4996739;28;20438;-50
2022/08/15 01:28:01;;;;;;;3.55;2.70;;;26.60;40.80;;;;;;5001414;28;20046;-52
2022/08/15 01:30:51;;;;;;;2.58;2.00;;;26.60;41.10;;;;;;5000207;28;20050;-53
2022/08/15 01:33:34;;;;;;;2.55;2.35;;;26.50;41.10;;;;;;4989347;28;20145;-53
2022/08/15 01:36:10;;;;;;;5.32;2.35;;;26.50;41.30;;;;;;4980814;28;20039;-50
2022/08/15 01:38:59;;;;;;;4.93;2.50;;;26.50;41.40;;;;;;5007424;28;20045;-52
2022/08/15 01:42:02;;;;;;;2.33;2.13;;;26.50;41.50;;;;;;5007438;28;20522;-53
2022/08/15 01:45:18;;;;;;;4.32;2.58;;;26.50;41.60;;;;;;5000057;28;20875;-50
2022/08/15 01:47:53;;;;;;;7.13;2.90;;;26.50;41.60;;;;;;5019034;28;20053;-51
2022/08/15 01:50:34;;;;;;;3.33;2.55;;;26.50;41.80;;;;;;4996175;28;20031;-52
2022/08/15 01:53:09;;;;;;;4.80;2.58;;;26.50;41.90;;;;;;4993909;28;20503;-54
2022/08/15 01:56:01;;;;;;;2.55;2.35;;;26.40;41.90;;;;;;4980596;28;20038;-52
2022/08/15 01:58:53;;;;;;;2.63;2.28;;;26.40;42.00;;;;;;5005108;28;20042;-53
2022/08/15 02:01:36;;;;;;;3.28;2.53;;;26.40;42.00;;;;;;5012065;28;20042;-51
2022/08/15 02:04:27;;;;;;;4.40;2.33;;;26.40;42.00;;;;;;5003412;28;20450;-54
2022/08/15 02:07:11;;;;;;;2.70;2.13;;;26.40;42.20;;;;;;5000837;28;20091;-53
2022/08/15 02:09:49;;;;;;;2.72;2.47;;;26.40;42.40;;;;;;4987411;28;20042;-54
2022/08/15 02:12:30;;;;;;;2.53;2.33;;;26.40;42.30;;;;;;5011950;28;20050;-52
2022/08/15 02:15:20;;;;;;;3.33;2.28;;;26.40;42.50;;;;;;5004511;28;20096;-53
2022/08/15 02:17:54;;;;;;;4.47;2.38;;;26.40;42.30;;;;;;4998004;28;20125;-50
2022/08/15 02:20:23;;;;;;;3.05;2.20;;;26.40;42.30;;;;;;4956747;28;20117;-52
2022/08/15 02:23:02;;;;;;;8.00;2.45;;;26.40;42.40;;;;;;5001515;28;20506;-54
2022/08/15 02:25:31;;;;;;;2.85;2.22;;;26.40;42.50;;;;;;4977502;28;20050;-54
2022/08/15 02:28:04;;;;;;;4.57;2.10;;;26.40;42.40;;;;;;4999636;28;20141;-51
2022/08/15 02:30:53;;;;;;;2.42;2.22;;;26.40;42.40;;;;;;5010071;28;20045;-54
2022/08/15 02:33:24;;;;;;;2.85;2.30;;;26.40;42.30;;;;;;5005496;28;20531;-52
2022/08/15 02:35:55;;;;;;;5.47;2.45;;;26.40;42.50;;;;;;5003174;28;20053;-51
2022/08/15 02:38:22;;;;;;;2.17;2.05;;;26.30;42.40;;;;;;4994888;28;20053;-53
2022/08/15 02:41:11;;;;;;;5.40;2.20;;;26.30;42.40;;;;;;4984107;28;20042;-53
2022/08/15 02:43:43;;;;;;;4.30;2.92;;;26.30;42.40;;;;;;4983972;28;20041;-53
2022/08/15 02:46:10;;;;;;;2.60;2.00;;;26.20;42.40;;;;;;5002093;28;20518;-50
2022/08/15 02:49:01;;;;;;;7.28;3.17;;;26.20;42.70;;;;;;5010999;28;20057;-54
2022/08/15 02:51:35;;;;;;;2.22;1.85;;;26.10;42.50;;;;;;5011016;28;20511;-53
2022/08/15 02:54:26;;;;;;;3.58;2.00;;;26.10;42.60;;;;;;5008464;28;20041;-54
2022/08/15 02:57:13;;;;;;;4.18;2.30;;;26.10;42.70;;;;;;5003737;28;20445;-51
2022/08/15 02:59:42;;;;;;;2.85;2.00;;;26.00;42.70;;;;;;4994780;28;20054;-52
2022/08/15 03:02:16;;;;;;;3.97;2.20;;;26.00;42.80;;;;;;4984126;28;20502;-53
2022/08/15 03:05:02;;;;;;;2.80;1.95;;;25.90;42.90;;;;;;4981231;28;20074;-52
2022/08/15 03:07:37;;;;;;;2.92;2.22;;;25.90;43.00;;;;;;5010575;28;20070;-51
2022/08/15 03:10:06;;;;;;;2.78;2.55;;;25.80;43.10;;;;;;4982174;28;20042;-54
2022/08/15 03:12:50;;;;;;;3.47;2.55;;;25.80;43.10;;;;;;4982256;28;20585;-54
2022/08/15 03:15:19;;;;;;;3.17;2.38;;;25.80;43.40;;;;;;5010071;28;20129;-53
2022/08/15 03:17:49;;;;;;;3.03;2.83;;;25.70;43.40;;;;;;5004387;28;20073;-54
2022/08/15 03:20:18;;;;;;;2.30;2.10;;;25.70;43.60;;;;;;4984816;28;20053;-54
2022/08/15 03:22:57;;;;;;;2.43;2.23;;;25.60;43.70;;;;;;4985624;28;20053;-50
2022/08/15 03:25:28;;;;;;;2.75;2.55;;;25.60;43.70;;;;;;5003659;28;20073;-54
2022/08/15 03:27:59;;;;;;;2.85;2.15;;;25.60;43.80;;;;;;4993308;28;20045;-52
2022/08/15 03:30:32;;;;;;;3.63;2.15;;;25.50;43.90;;;;;;4984263;28;20048;-52
2022/08/15 03:32:59;;;;;;;2.50;1.83;;;25.50;43.90;;;;;;4985445;28;20049;-53
2022/08/15 03:35:37;;;;;;;2.40;2.20;;;25.50;44.30;;;;;;5010037;28;20125;-54
2022/08/15 03:38:07;;;;;;;2.13;1.98;;;25.50;44.30;;;;;;5007245;28;20065;-50
2022/08/15 03:40:37;;;;;;;;;;;25.50;44.40;;;;;;4979846;28;20046;-54
2022/08/15 03:43:12;;;;;;;2.72;1.98;;;25.60;43.80;;;;;;4984081;28;19921;-52
2022/08/15 03:45:51;;;;;;;2.15;1.92;;;25.50;44.20;;;;;;4993145;28;20069;-50
2022/08/15 03:48:29;;;;;;;2.55;2.10;;;25.50;44.30;;;;;;5005754;28;20045;-52
2022/08/15 03:51:01;;;;;;;5.05;2.35;;;25.50;44.70;;;;;;4984182;28;20114;-50
2022/08/15 03:53:35;;;;;;;3.85;2.13;;;25.50;44.60;;;;;;4991791;28;20034;-53
2022/08/15 03:56:14;;;;;;;2.58;2.35;;;25.50;44.70;;;;;;4983408;28;20043;-51
2022/08/15 03:58:46;;;;;;;3.33;2.15;;;25.50;44.80;;;;;;4981190;28;20043;-53
2022/08/15 04:01:19;;;;;;;3.80;3.08;;;25.50;44.90;;;;;;4982185;28;20556;-53
2022/08/15 04:03:55;;;;;;;4.80;2.55;;;25.50;45.00;;;;;;4990267;28;20050;-54
2022/08/15 04:06:29;;;;;;;3.55;2.38;;;25.50;45.00;;;;;;4962845;28;20392;-49
2022/08/15 04:08:59;;;;;;;2.42;2.22;;;25.50;45.00;;;;;;4982402;28;20051;-51
2022/08/15 04:11:46;;;;;;;3.13;2.10;;;25.50;45.10;;;;;;4991012;28;20078;-54
2022/08/15 04:14:21;;;;;;;3.38;1.90;;;25.50;45.00;;;;;;4990720;28;20455;-54
2022/08/15 04:17:03;;;;;;;4.45;2.65;;;25.50;45.00;;;;;;4975530;28;20058;-50
2022/08/15 04:19:48;;;;;;;3.10;2.13;;;25.50;45.00;;;;;;4982776;28;20114;-54
2022/08/15 04:22:31;;;;;;;4.18;2.30;;;25.50;44.90;;;;;;4951695;28;20575;-49
2022/08/15 04:25:18;;;;;;;4.00;2.40;;;25.50;45.20;;;;;;4960120;28;20054;-50
2022/08/15 04:27:49;;;;;;;3.60;2.70;;;25.50;45.10;;;;;;4974095;28;20057;-50
2022/08/15 04:30:24;;;;;;;3.30;2.08;;;25.50;45.10;;;;;;4982645;28;20042;-51
2022/08/15 04:33:04;;;;;;;2.45;1.88;;;25.50;45.10;;;;;;4974429;28;20069;-53
2022/08/15 04:35:48;;;;;;;3.45;1.83;;;25.50;45.20;;;;;;4976673;28;20073;-54
2022/08/15 04:38:18;;;;;;;3.45;2.17;;;25.50;45.20;;;;;;4969965;28;20158;-53
2022/08/15 04:40:49;;;;;;;3.72;2.47;;;25.50;45.20;;;;;;4958959;28;20046;-54
2022/08/15 04:43:41;;;;;;;5.60;2.28;;;25.50;45.20;;;;;;4981705;28;20089;-50
2022/08/15 04:46:16;;;;;;;5.65;2.38;;;25.50;45.30;;;;;;4986142;28;20054;-53
2022/08/15 04:48:53;;;;;;;3.85;2.10;;;25.50;45.30;;;;;;4986505;28;20050;-51
2022/08/15 04:51:24;;;;;;;2.22;1.75;;;25.50;45.30;;;;;;4955400;28;20038;-54
2022/08/15 04:54:05;;;;;;;2.40;2.20;;;25.50;45.40;;;;;;4971200;28;20047;-54
2022/08/15 04:56:37;;;;;;;2.95;2.13;;;25.50;45.50;;;;;;4974096;28;20508;-52
2022/08/15 04:59:21;;;;;;;3.33;1.85;;;25.50;45.50;;;;;;4982179;28;20050;-51
2022/08/15 05:02:13;;;;;;;2.80;2.60;;;25.50;45.50;;;;;;4987612;28;20057;-54
2022/08/15 05:05:02;;;;;;;3.33;2.17;;;25.50;45.60;;;;;;4987823;28;20053;-50
2022/08/15 05:07:31;;;;;;;5.57;2.00;;;25.50;45.60;;;;;;4965617;28;20089;-51
2022/08/15 05:10:04;;;;;;;3.95;2.42;;;25.50;45.70;;;;;;4990252;28;20078;-53
2022/08/15 05:12:40;;;;;;;2.40;2.20;;;25.50;45.80;;;;;;4977301;28;20042;-50
2022/08/15 05:15:21;;;;;;;2.17;2.03;;;25.50;45.80;;;;;;4986481;28;20051;-50
2022/08/15 05:17:53;;;;;;;3.58;2.13;;;25.50;45.90;;;;;;4983152;28;20047;-51
2022/08/15 05:20:26;;;;;;;4.88;2.40;;;25.50;46.00;;;;;;4970841;28;20427;-51
2022/08/15 05:23:07;;;;;;;2.47;2.28;;;25.50;46.00;;;;;;4957583;28;20173;-51
2022/08/15 05:25:53;;;;;;;2.65;1.83;;;25.50;46.10;;;;;;4982430;28;20516;-52
2022/08/15 05:28:32;;;;;;;4.22;2.05;;;25.50;46.20;;;;;;4967355;28;20058;-52
2022/08/15 05:31:07;;;;;;;3.33;2.08;;;25.60;46.30;;;;;;4956165;28;20050;-53
2022/08/15 05:33:44;;;;;;;4.45;1.90;;;25.50;46.30;;;;;;4988084;28;20042;-51
2022/08/15 05:36:26;;;;;;;4.13;2.33;;;25.50;46.40;;;;;;4978548;28;20046;-51
2022/08/15 05:39:02;;;;;;;5.60;2.17;;;25.60;46.50;;;;;;4986055;28;20325;-49
2022/08/15 05:41:48;;;;;;;3.20;2.42;;;25.60;46.60;;;;;;4994202;28;20042;-49
2022/08/15 05:44:58;;;;;;;2.25;2.03;;;25.60;46.70;;;;;;4977814;28;20046;-53
2022/08/15 05:47:33;;;;;;;2.28;2.05;;;25.60;46.70;;;;;;4974655;28;20054;-51
2022/08/15 05:50:31;;;;;;;2.65;2.42;;;25.60;46.60;;;;;;4993022;28;20129;-50
2022/08/15 05:53:23;;;;;;;4.60;2.58;;;25.60;46.80;;;;;;4988447;28;20044;-51
2022/08/15 05:56:06;;;;;;;5.13;2.40;;;25.60;46.90;;;;;;5009044;28;20413;-52
2022/08/15 05:58:41;;;;;;;2.53;1.83;;;25.60;46.80;;;;;;5007013;28;20511;-51
2022/08/15 06:01:37;;;;;;;3.70;1.65;;;25.60;47.10;;;;;;4983044;28;20069;-54
2022/08/15 06:04:13;;;;;;;4.35;2.50;;;25.60;47.20;;;;;;4987991;28;20050;-54
2022/08/15 06:07:06;;;;;;;4.50;2.10;;;25.60;47.20;;;;;;4991078;28;20125;-52
2022/08/15 06:09:57;;;;;;;2.72;2.08;;;25.60;47.30;;;;;;4977654;28;20046;-54
2022/08/15 06:12:34;;;;;;;1.92;1.83;;;25.60;47.40;;;;;;5000393;28;20514;-54
2022/08/15 06:15:25;;;;;;;4.57;2.10;;;25.60;47.30;;;;;;5010867;28;20041;-54
2022/08/15 06:18:07;;;;;;;3.28;2.00;;;25.70;47.60;;;;;;4981862;28;20038;-53
2022/08/15 06:21:05;;;;;;;4.50;2.25;;;25.70;47.50;;;;;;4988009;28;20054;-54
2022/08/15 06:24:03;;;;;;;6.28;2.20;;;25.70;47.70;;;;;;4996032;28;20119;-50
2022/08/15 06:27:03;;;;;;;4.45;2.05;;;25.70;47.60;;;;;;4990141;28;20462;-53
2022/08/15 06:29:52;;;;;;;2.25;1.95;;;25.80;47.70;;;;;;4993781;28;20582;-50
2022/08/15 06:32:42;;;;;;;3.72;2.13;;;25.70;48.00;;;;;;4980413;28;20053;-54
2022/08/15 06:35:34;;;;;;;5.28;3.03;;;25.80;48.30;;;;;;5011903;28;20088;-52
2022/08/15 06:38:25;;;;;;;4.57;2.65;;;25.80;48.10;;;;;;4997530;28;20050;-50
2022/08/15 06:41:35;;;;;;;2.08;1.83;;;25.80;48.10;;;;;;4984517;28;20537;-51
2022/08/15 06:44:27;;;;;;;6.25;3.03;;;25.80;48.10;;;;;;4988275;28;20050;-53
2022/08/15 06:47:03;;;;;;;2.40;2.17;;;25.80;48.10;;;;;;4982481;28;20077;-53
2022/08/15 06:49:36;;;;;;;4.25;2.42;;;25.80;48.20;;;;;;5003850;28;20069;-53
2022/08/15 06:52:08;;;;;;;2.80;2.05;;;25.80;48.40;;;;;;4993493;28;20069;-52
2022/08/15 06:54:43;;;;;;;3.63;2.40;;;25.90;48.50;;;;;;4995403;28;20045;-51
2022/08/15 06:57:29;;;;;;;2.58;2.30;;;25.90;48.50;;;;;;4998955;28;20537;-54
2022/08/15 07:00:18;;;;;;;2.28;1.88;;;26.00;48.90;;;;;;4984136;28;20035;-50
2022/08/15 07:03:31;;;;;;;2.95;2.30;;;26.10;48.70;;;;;;5011520;28;20042;-51
2022/08/15 07:06:14;;;;;;;3.95;2.30;;;26.10;48.60;;;;;;4980512;28;20038;-52
2022/08/15 07:09:01;;;;;;;2.53;2.22;;;26.20;49.00;;;;;;4983582;28;20097;-54
2022/08/15 07:11:42;;;;;;;4.63;2.67;;;26.20;48.40;;;;;;4988677;28;20134;-50
2022/08/15 07:14:32;;;;;;;3.13;2.42;;;26.30;48.30;;;;;;4977991;28;20058;-54
2022/08/15 07:17:19;;;;;;;3.25;2.58;;;26.30;48.40;;;;;;4986260;28;20529;-54
2022/08/15 07:19:51;;;;;;;3.90;2.70;;;26.40;48.40;;;;;;4980126;28;20042;-54
2022/08/15 07:22:40;;;;;;;3.00;2.67;;;26.40;47.90;;;;;;4991784;28;20582;-54
2022/08/15 07:25:25;;;;;;;2.63;2.42;;;26.40;47.70;;;;;;4997519;28;20124;-52
2022/08/15 07:28:04;;;;;;;3.80;2.33;;;26.50;48.00;;;;;;4983205;28;20042;-53
2022/08/15 07:30:55;;;;;;;4.10;3.22;;;26.50;48.00;;;;;;4956025;28;20055;-52
2022/08/15 07:33:32;;;;;;;3.33;2.60;;;26.50;47.90;;;;;;4981406;28;20046;-52
2022/08/15 07:36:30;;;;;;;2.60;2.30;;;26.50;47.90;;;;;;5002474;28;20092;-54
2022/08/15 07:39:23;;;;;;;2.58;2.38;;;26.60;48.00;;;;;;4988393;28;20076;-54
2022/08/15 07:42:20;;;;;;;3.70;2.88;;;26.50;48.10;;;;;;5002598;28;20041;-54
2022/08/15 07:45:37;;;;;;;2.88;2.20;;;26.60;48.30;;;;;;4990301;28;20112;-52
2022/08/15 07:48:29;;;;;;;6.05;3.10;;;26.40;48.40;;;;;;4971605;28;20054;-54
2022/08/15 07:51:26;;;;;;;3.10;2.85;;;26.40;48.40;;;;;;4978135;28;20042;-54
2022/08/15 07:54:19;;;;;;;3.42;2.58;;;26.30;48.70;;;;;;4987227;28;20050;-50
2022/08/15 07:57:04;;;;;;;4.78;2.60;;;26.30;48.90;;;;;;5007995;28;20391;-50
2022/08/15 07:59:36;;;;;;;2.97;2.70;;;26.20;49.00;;;;;;4994228;28;20046;-54
2022/08/15 08:02:34;;;;;;;3.40;3.10;;;26.40;49.10;;;;;;4979432;28;20109;-54
2022/08/15 08:05:18;;;;;;;3.03;2.58;;;26.20;49.50;;;;;;4984802;28;20077;-51
2022/08/15 08:08:04;;;;;;;6.72;3.05;;;26.10;49.40;;;;;;4994109;28;20058;-51
2022/08/15 08:10:39;;;;;;;3.38;3.00;;;26.10;49.80;;;;;;4989740;28;20060;-54
2022/08/15 08:13:29;;;;;;;4.78;2.55;;;26.10;50.00;;;;;;4990757;28;20252;-50
2022/08/15 08:16:28;;;;;;;4.35;3.20;;;26.20;50.30;;;;;;5008243;28;20414;-53
2022/08/15 08:19:10;;;;;;;4.30;2.55;;;26.20;50.20;;;;;;4997300;28;20050;-53
2022/08/15 08:22:07;;;;;;;6.40;3.28;;;26.20;50.20;;;;;;4980619;28;20046;-54
2022/08/15 08:25:18;;;;;;;2.95;2.72;;;26.30;50.40;;;;;;4985656;28;20462;-51
2022/08/15 08:28:36;;;;;;;3.40;3.10;;;26.30;50.40;;;;;;4981550;28;20054;-53
2022/08/15 08:31:26;;;;;;;5.60;3.50;;;26.40;50.20;;;;;;4982242;28;20049;-50
2022/08/15 08:34:15;;;;;;;3.42;2.90;;;26.40;50.20;;;;;;5001980;28;20100;-53
2022/08/15 08:37:02;;;;;;;3.63;3.17;;;26.50;50.30;;;;;;5003704;28;20074;-50
2022/08/15 08:39:54;;;;;;;6.45;3.85;;;26.50;50.00;;;;;;5001581;28;20097;-53
2022/08/15 08:42:43;;;;;;;4.60;3.13;;;26.50;50.40;;;;;;5000375;28;20077;-54
2022/08/15 08:45:34;;;;;;;4.45;3.00;;;26.60;50.30;;;;;;5010938;28;20054;-54
2022/08/15 08:48:24;;;;;;;4.75;3.35;;;26.70;50.20;;;;;;5005177;28;20450;-52
2022/08/15 08:50:54;;;;;;;5.57;3.33;;;26.70;50.00;;;;;;4999396;28;20050;-51
2022/08/15 08:54:06;;;;;;;4.50;3.08;;;26.80;50.00;;;;;;5011229;28;20494;-51
2022/08/15 08:56:45;;;;;;;5.40;3.72;;;26.80;50.10;;;;;;5001680;28;20038;-49
2022/08/15 08:59:26;;;;;;;5.03;2.83;;;26.80;49.80;;;;;;5004163;28;20050;-54
2022/08/15 09:02:14;;;;;;;4.97;3.50;;;26.80;50.00;;;;;;5003078;28;20081;-53
2022/08/15 09:04:52;;;;;;;4.45;3.67;;;26.80;50.20;;;;;;5011298;28;20510;-52
2022/08/15 09:07:30;;;;;;;3.92;3.50;;;26.80;50.10;;;;;;5005341;28;20084;-51
2022/08/15 09:10:06;;;;;;;6.75;4.07;;;26.80;50.40;;;;;;5003936;28;20050;-53
2022/08/15 09:15:30;;;;;;;4.18;3.58;;;26.80;50.20;;;;;;5006281;28;20061;-54
2022/08/15 09:18:26;;;;;;;5.97;3.17;;;26.80;50.10;;;;;;5005521;28;20084;-54
2022/08/15 09:20:56;;;;;;;11.07;4.10;;;26.90;50.40;;;;;;5002980;28;20046;-53
2022/08/15 09:23:38;;;;;;;4.68;3.58;;;26.90;50.40;;;;;;4995865;28;20066;-50
2022/08/15 09:26:13;;;;;;;6.35;3.47;;;26.90;50.70;;;;;;4997186;28;20057;-50
2022/08/15 09:29:04;;;;;;;6.40;3.38;;;27.00;50.60;;;;;;5006372;28;20053;-54
2022/08/15 09:31:59;;;;;;;6.47;3.75;;;27.00;50.30;;;;;;4998602;28;20407;-49
2022/08/15 09:34:56;;;;;;;5.72;3.53;;;27.10;50.30;;;;;;5001802;28;20039;-54
2022/08/15 09:37:47;;;;;;;6.43;3.83;;;27.20;50.10;;;;;;5001925;28;20049;-52
2022/08/15 09:40:42;;;;;;;4.55;3.45;;;27.20;50.00;;;;;;4998762;28;20121;-50
2022/08/15 09:43:37;;;;;;;6.03;3.42;;;27.30;49.80;;;;;;5014149;28;20137;-52
2022/08/15 09:46:35;;;;;;;3.30;3.00;;;27.30;49.70;;;;;;5005038;28;20122;-51
2022/08/15 09:49:26;;;;;;;4.60;3.65;;;27.40;49.90;;;;;;5004691;28;20038;-50
2022/08/15 09:52:18;;;;;;;4.10;3.55;;;27.40;49.90;;;;;;5012809;28;20552;-54
2022/08/15 09:55:25;;;;;;;6.63;4.43;;;27.40;49.60;;;;;;4998536;28;20038;-50
2022/08/15 09:58:12;;;;;;;5.45;3.75;;;27.60;49.60;;;;;;5002764;28;20046;-50
2022/08/15 10:01:24;;;;;;;4.45;3.67;;;27.60;49.50;;;;;;5014076;28;20057;-52
2022/08/15 10:03:59;;;;;;;3.30;2.63;;;27.70;49.60;;;;;;5006566;28;20116;-51
2022/08/15 10:06:31;;;;;;;3.60;3.30;;;27.80;49.30;;;;;;5003863;28;20045;-51
2022/08/15 10:09:40;;;;;;;4.70;3.63;;;27.90;49.40;;;;;;4994256;28;20035;-50
2022/08/15 10:12:11;;;;;;;3.42;3.13;;;28.00;49.30;;;;;;4984604;28;20053;-50
2022/08/15 10:15:01;;;;;;;4.88;3.55;;;28.20;49.20;;;;;;5003269;28;20038;-53
2022/08/15 10:17:37;;;;;;;5.68;3.80;;;28.30;48.90;;;;;;5000227;28;20052;-52
2022/08/15 10:20:14;;;;;;;3.63;3.33;;;28.50;48.40;;;;;;5013737;28;20046;-50
2022/08/15 10:22:57;;;;;;;4.85;3.53;;;28.60;48.00;;;;;;5002837;28;20537;-51
2022/08/15 10:25:41;;;;;;;3.80;3.42;;;28.70;47.80;;;;;;5001997;28;20521;-52
2022/08/15 10:28:13;;;;;;;3.95;3.55;;;28.80;47.70;;;;;;5012467;28;20656;-53
2022/08/15 10:31:06;;;;;;;3.55;3.25;;;28.80;47.30;;;;;;5010450;28;20156;-51
2022/08/15 10:33:48;;;;;;;3.72;3.25;;;28.90;47.10;;;;;;5007282;28;20096;-50
2022/08/15 10:36:30;;;;;;;4.05;3.33;;;28.90;46.90;;;;;;4998514;28;20125;-53
2022/08/15 10:39:11;;;;;;;4.38;3.42;;;28.90;46.80;;;;;;5013208;28;20117;-54
2022/08/15 10:41:45;;;;;;;4.38;3.67;;;28.90;46.60;;;;;;5006856;28;20050;-54
2022/08/15 10:44:37;;;;;;;4.45;3.33;;;28.90;46.60;;;;;;5006146;28;20122;-54
2022/08/15 10:47:30;;;;;;;5.05;3.53;;;28.80;46.50;;;;;;5011044;28;20073;-53
2022/08/15 10:50:05;;;;;;;3.55;3.08;;;28.80;46.70;;;;;;5006259;28;20107;-50
2022/08/15 10:53:01;;;;;;;5.75;3.50;;;28.70;46.90;;;;;;5003125;28;20041;-52
2022/08/15 10:55:36;;;;;;;5.32;3.30;;;28.70;47.10;;;;;;4998958;28;20034;-50
2022/08/15 10:58:32;;;;;;;3.90;3.30;;;28.70;47.00;;;;;;5010592;28;20042;-54
2022/08/15 11:01:11;;;;;;;3.75;3.20;;;28.70;47.10;;;;;;5001958;28;20046;-52
2022/08/15 11:03:58;;;;;;;6.88;4.10;;;28.70;47.20;;;;;;5004649;28;20053;-54
2022/08/15 11:06:46;;;;;;;4.47;4.07;;;28.80;47.00;;;;;;5008836;28;20034;-50
2022/08/15 11:09:23;;;;;;;8.00;3.53;;;28.80;47.00;;;;;;4997693;28;20082;-50
2022/08/15 11:11:54;;;;;;;4.15;3.15;;;28.90;47.10;;;;;;5000877;28;20046;-54
2022/08/15 11:14:29;;;;;;;6.28;4.13;;;28.90;46.90;;;;;;4998089;28;20049;-55
2022/08/15 11:17:00;;;;;;;5.70;3.50;;;29.00;47.00;;;;;;5010632;28;20049;-54
2022/08/15 11:19:33;;;;;;;;;;;29.00;47.20;;;;;;5006402;28;20061;-51
2022/08/15 11:22:46;;;;;;;5.05;3.55;;;29.10;46.90;;;;;;4997540;28;20024;-52
2022/08/15 11:25:19;;;;;;;4.47;3.38;;;29.20;46.70;;;;;;5009908;28;20092;-54
2022/08/15 11:28:20;;;;;;;5.10;4.28;;;29.20;46.60;;;;;;4997844;28;20109;-54
2022/08/15 11:31:16;;;;;;;6.95;3.80;;;29.30;46.50;;;;;;5003367;28;20050;-54
2022/08/15 11:33:50;;;;;;;5.57;3.85;;;29.30;46.70;;;;;;4995759;28;20046;-53
2022/08/15 11:36:24;;;;;;;5.07;3.67;;;29.40;46.60;;;;;;4983977;28;20038;-54
2022/08/15 11:39:00;;;;;;;5.55;3.53;;;29.40;46.30;;;;;;5001968;28;20113;-54
2022/08/15 11:41:56;;;;;;;4.85;3.58;;;29.40;46.30;;;;;;5004119;28;20116;-50
2022/08/15 11:44:46;;;;;;;5.72;4.15;;;29.40;46.20;;;;;;5012150;28;20050;-54
2022/08/15 11:47:28;;;;;;;7.10;3.88;;;29.40;46.70;;;;;;5002916;28;20048;-50
2022/08/15 11:50:01;;;;;;;7.63;4.20;;;29.30;47.00;;;;;;5000576;28;20085;-54
2022/08/15 11:52:55;;;;;;;4.18;3.78;;;29.30;48.00;;;;;;5012095;28;20040;-54
2022/08/15 11:55:26;;;;;;;6.38;4.38;;;29.30;48.10;;;;;;5009814;28;20053;-50
2022/08/15 11:58:05;;;;;;;5.15;3.80;;;29.20;48.90;;;;;;4998208;28;20522;-52
2022/08/15 12:00:51;;;;;;;4.40;3.35;;;29.10;48.90;;;;;;5003792;28;20087;-54
2022/08/15 12:03:24;;;;;;;4.95;3.83;;;29.10;49.60;;;;;;5009958;28;21010;-50
2022/08/15 12:06:25;;;;;;;4.55;3.55;;;29.00;49.80;;;;;;5001610;28;20104;-54
2022/08/15 12:09:22;;;;;;;5.22;3.90;;;29.00;50.40;;;;;;5002736;28;20049;-53
2022/08/15 12:12:39;;;;;;;4.72;3.85;;;29.00;50.40;;;;;;5011856;28;20455;-50
2022/08/15 12:15:42;;;;;;;6.07;3.97;;;28.90;50.10;;;;;;5001805;28;20042;-53
2022/08/15 12:18:24;;;;;;;4.60;3.55;;;28.90;50.70;;;;;;4962838;28;20134;-54
2022/08/15 12:21:16;;;;;;;6.00;3.83;;;28.90;51.50;;;;;;5007400;28;20124;-54
2022/08/15 12:23:56;;;;;;;3.80;3.50;;;28.90;51.90;;;;;;4997771;28;20409;-54
2022/08/15 12:26:28;;;;;;;5.55;3.58;;;29.00;52.20;;;;;;4996548;28;20049;-50
2022/08/15 12:29:20;;;;;;;7.15;4.07;;;28.90;50.50;;;;;;5002977;28;20034;-50
2022/08/15 12:31:47;;;;;;;;;;;28.90;50.90;;;;;;5012060;28;20049;-54
2022/08/15 12:34:18;;;;;;;5.90;3.80;;;29.00;50.20;;;;;;5002966;28;19975;-54
2022/08/15 12:37:12;;;;;;;5.50;3.60;;;28.90;50.40;;;;;;4996803;28;20042;-53
2022/08/15 12:40:07;;;;;;;5.13;3.80;;;28.90;51.20;;;;;;5011052;28;20101;-51
2022/08/15 12:42:54;;;;;;;6.85;4.13;;;28.80;52.00;;;;;;5004425;28;20053;-52
2022/08/15 12:45:26;;;;;;;5.78;4.03;;;28.70;52.80;;;;;;5008324;28;20082;-54
2022/08/15 12:48:12;;;;;;;3.95;3.65;;;28.70;52.90;;;;;;5013286;28;20065;-54
2022/08/15 12:50:53;;;;;;;8.27;4.57;;;28.60;53.50;;;;;;5013529;28;20042;-54
2022/08/15 12:53:26;;;;;;;5.35;4.80;;;28.60;53.40;;;;;;4989513;28;20050;-54
2022/08/15 12:55:58;;;;;;;4.63;3.50;;;28.60;54.20;;;;;;5006508;28;20042;-51
2022/08/15 12:58:27;;;;;;;5.63;4.38;;;28.60;54.50;;;;;;5015178;28;20465;-50
2022/08/15 13:00:57;;;;;;;4.30;3.90;;;28.60;54.50;;;;;;4995241;28;20129;-54
2022/08/15 13:03:47;;;;;;;5.82;4.45;;;28.60;53.40;;;;;;5004795;28;20042;-53
2022/08/15 13:06:36;;;;;;;6.15;4.43;;;28.70;53.30;;;;;;4999262;28;20124;-54
2022/08/15 13:09:06;;;;;;;4.85;4.20;;;28.80;54.30;;;;;;4994906;28;20438;-54
2022/08/15 13:11:36;;;;;;;4.57;4.18;;;28.90;53.30;;;;;;5003676;28;20054;-52
2022/08/15 13:14:07;;;;;;;4.07;3.67;;;29.00;52.70;;;;;;5004917;28;20418;-50
2022/08/15 13:16:41;;;;;;;5.15;4.65;;;29.20;53.30;;;;;;5014572;28;20049;-53
2022/08/15 13:19:30;;;;;;;4.93;4.53;;;29.40;54.20;;;;;;5007333;28;20221;-53
2022/08/15 13:25:00;;;;;;;6.68;4.15;;;29.90;52.00;;;;;;5006454;28;20061;-53
2022/08/15 13:27:34;;;;;;;4.50;4.18;;;30.20;51.80;;;;;;5013719;28;20391;-54
2022/08/15 13:30:08;;;;;;;5.38;4.30;;;30.50;50.90;;;;;;4999725;28;20062;-54
2022/08/15 13:32:47;;;;;;;4.70;4.20;;;30.60;49.90;;;;;;5001993;28;20041;-54
2022/08/15 13:35:18;;;;;;;4.40;4.00;;;30.80;48.90;;;;;;5014371;28;20053;-53
2022/08/15 13:37:50;;;;;;;4.95;4.22;;;31.00;48.10;;;;;;5010320;28;20422;-54
2022/08/15 13:40:31;;;;;;;6.53;4.00;;;31.00;47.30;;;;;;5000823;28;20507;-53
2022/08/15 13:43:02;;;;;;;7.13;4.53;;;31.20;47.80;;;;;;4986637;28;20532;-53
2022/08/15 13:45:42;;;;;;;3.95;3.58;;;31.70;48.80;;;;;;5013792;28;20049;-54
2022/08/15 13:48:35;;;;;;;3.50;3.20;;;32.40;48.80;;;;;;4996792;28;20042;-53
2022/08/15 13:51:14;;;;;;;2.90;2.70;;;33.40;47.40;;;;;;5004965;28;20049;-51
2022/08/15 13:53:44;;;;;;;4.20;3.22;;;34.50;46.90;;;;;;5014260;28;20418;-54
2022/08/15 13:56:36;;;;;;;4.10;3.70;;;35.70;45.40;;;;;;5007773;28;20046;-54
2022/08/15 13:59:08;;;;;;;3.47;2.55;;;36.80;41.90;;;;;;5006627;28;20046;-55
2022/08/15 14:01:43;;;;;;;3.97;2.40;;;37.60;39.10;;;;;;5005956;28;20042;-54
2022/08/15 14:04:16;;;;;;;2.72;2.53;;;38.00;36.30;;;;;;5014139;28;20121;-53
2022/08/15 14:06:48;;;;;;;3.17;2.90;;;38.00;34.30;;;;;;5009905;28;20034;-54
2022/08/15 14:09:25;;;;;;;2.97;2.78;;;37.90;34.00;;;;;;5007180;28;20120;-51
2022/08/15 14:12:12;;;;;;;2.63;2.30;;;37.50;33.50;;;;;;5005711;28;20562;-55